Time;durP1;ratioP1;P1;durP2;ratioP2;P2;SDS_P1;SDS_P2;PMS_P1;PMS_P2;Temp;Humidity;BMP_temperature;BMP_pressure;BME280_temperature;BME280_humidity;BME280_pressure;Samples;Min_cycle;Max_cycle;Signal;HPM_P1;HPM_P2
2021/11/30 00:01:18;;;;;;;12.90;6.90;;;5.10;99.90;;;;;;5084785;28;20456;-86
2021/11/30 00:03:45;;;;;;;12.13;6.57;;;5.00;99.90;;;;;;5085172;28;20447;-83
2021/11/30 00:06:12;;;;;;;12.43;7.30;;;5.00;99.90;;;;;;5073678;28;20445;-83
2021/11/30 00:08:43;;;;;;;10.53;6.50;;;5.00;99.90;;;;;;5085926;28;20482;-85
2021/11/30 00:11:15;;;;;;;18.00;7.87;;;5.00;99.90;;;;;;5077763;28;20448;-84
2021/11/30 00:13:42;;;;;;;15.47;8.80;;;5.00;99.90;;;;;;5084246;28;20445;-85
2021/11/30 00:16:11;;;;;;;13.47;6.77;;;5.00;99.90;;;;;;5075879;28;20455;-84
2021/11/30 00:18:38;;;;;;;9.50;5.33;;;5.00;99.90;;;;;;5084887;28;20444;-84
2021/11/30 00:21:07;;;;;;;12.80;6.70;;;5.00;99.90;;;;;;5084165;28;20533;-85
2021/11/30 00:23:34;;;;;;;11.00;7.10;;;5.00;99.90;;;;;;5083392;28;20450;-85
2021/11/30 00:26:04;;;;;;;14.63;7.40;;;5.00;99.90;;;;;;5080563;28;20482;-86
2021/11/30 00:28:34;;;;;;;20.13;7.57;;;5.00;99.90;;;;;;5078080;28;20548;-85
2021/11/30 00:31:01;;;;;;;12.53;6.93;;;4.90;99.90;;;;;;5068368;28;20460;-85
2021/11/30 00:33:30;;;;;;;15.03;6.30;;;4.90;99.90;;;;;;5073873;28;20451;-85
2021/11/30 00:35:57;;;;;;;14.43;6.53;;;4.90;99.90;;;;;;5074021;28;20467;-84
2021/11/30 00:38:27;;;;;;;15.20;6.70;;;4.90;99.90;;;;;;5080672;28;20448;-85
2021/11/30 00:40:53;;;;;;;11.30;6.50;;;4.90;99.90;;;;;;5071058;28;20465;-85
2021/11/30 00:43:26;;;;;;;17.30;8.07;;;4.90;99.90;;;;;;5082240;28;20453;-85
2021/11/30 00:45:57;;;;;;;10.63;6.20;;;4.90;99.90;;;;;;5085239;28;20883;-84
2021/11/30 00:48:30;;;;;;;15.70;7.23;;;4.80;99.90;;;;;;5080847;28;20897;-85
2021/11/30 00:51:02;;;;;;;10.00;5.13;;;4.80;99.90;;;;;;5084423;28;20943;-86
2021/11/30 00:53:29;;;;;;;13.77;7.47;;;4.70;99.90;;;;;;5071155;28;20539;-85
2021/11/30 00:55:56;;;;;;;12.23;5.87;;;4.70;99.90;;;;;;5071146;28;20455;-85
2021/11/30 00:58:23;;;;;;;9.97;5.80;;;4.70;99.90;;;;;;5073769;28;20443;-87
2021/11/30 01:00:50;;;;;;;12.50;5.67;;;4.70;99.90;;;;;;5069397;28;20481;-85
2021/11/30 01:03:18;;;;;;;9.57;5.50;;;4.70;99.90;;;;;;5076203;28;20457;-86
2021/11/30 01:05:45;;;;;;;13.37;6.87;;;4.70;99.90;;;;;;5083695;28;20563;-86
2021/11/30 01:08:12;;;;;;;11.43;6.47;;;4.70;99.90;;;;;;5070764;28;20447;-87
2021/11/30 01:10:39;;;;;;;12.37;6.77;;;4.70;99.90;;;;;;5067993;28;20539;-85
2021/11/30 01:13:05;;;;;;;17.10;6.80;;;4.70;99.90;;;;;;5068188;28;20453;-85
2021/11/30 01:15:33;;;;;;;11.37;6.30;;;4.70;99.90;;;;;;5078674;28;20443;-83
2021/11/30 01:18:00;;;;;;;27.07;6.40;;;4.70;99.90;;;;;;5066936;28;20453;-85
2021/11/30 01:20:28;;;;;;;15.10;6.53;;;4.70;99.90;;;;;;5063887;28;20474;-87
2021/11/30 01:22:56;;;;;;;14.50;6.80;;;4.70;99.90;;;;;;5065342;28;20458;-86
2021/11/30 01:25:23;;;;;;;10.10;6.83;;;4.60;99.90;;;;;;5066289;28;20482;-85
2021/11/30 01:27:50;;;;;;;13.90;6.63;;;4.70;99.90;;;;;;5064237;28;20479;-86
2021/11/30 01:30:17;;;;;;;12.23;6.80;;;4.60;99.90;;;;;;5065676;28;20487;-85
2021/11/30 01:32:45;;;;;;;10.60;6.53;;;4.60;99.90;;;;;;5066130;28;20455;-87
2021/11/30 01:35:13;;;;;;;14.87;7.23;;;4.60;99.90;;;;;;5066602;28;20451;-86
2021/11/30 01:37:42;;;;;;;13.10;7.13;;;4.60;99.90;;;;;;5066382;28;20456;-86
2021/11/30 01:40:11;;;;;;;13.50;6.90;;;4.50;99.90;;;;;;5065292;28;20469;-84
2021/11/30 01:42:42;;;;;;;14.50;7.23;;;4.50;99.90;;;;;;5068307;28;20501;-84
2021/11/30 01:45:11;;;;;;;13.67;6.70;;;4.60;99.90;;;;;;5066442;28;20459;-85
2021/11/30 01:47:54;;;;;;;15.10;6.00;;;4.60;99.90;;;;;;5067028;28;20523;-84
2021/11/30 01:50:21;;;;;;;13.77;6.60;;;4.50;99.90;;;;;;5066067;28;20480;-85
2021/11/30 01:52:50;;;;;;;14.03;6.60;;;4.50;99.90;;;;;;5062793;28;20456;-86
2021/11/30 01:55:18;;;;;;;8.93;6.20;;;4.50;99.90;;;;;;5061696;28;20446;-85
2021/11/30 01:57:46;;;;;;;13.80;6.80;;;4.50;99.90;;;;;;5067218;28;20476;-84
2021/11/30 02:00:14;;;;;;;10.87;6.23;;;4.50;99.90;;;;;;5068560;28;20475;-84
2021/11/30 02:02:42;;;;;;;12.30;5.90;;;4.60;99.90;;;;;;5071082;28;20484;-84
2021/11/30 02:05:10;;;;;;;11.07;6.37;;;4.50;99.90;;;;;;5068035;28;20604;-85
2021/11/30 02:07:37;;;;;;;11.43;7.70;;;4.60;99.90;;;;;;5071707;28;20465;-85
2021/11/30 02:10:08;;;;;;;9.67;5.67;;;4.60;99.90;;;;;;5077830;28;20559;-85
2021/11/30 02:12:35;;;;;;;11.53;6.13;;;4.60;99.90;;;;;;5077244;28;20462;-86
2021/11/30 02:15:03;;;;;;;9.20;5.00;;;4.60;99.90;;;;;;5070955;28;20462;-86
2021/11/30 02:17:30;;;;;;;13.20;8.03;;;4.50;99.90;;;;;;5079426;28;20448;-85
2021/11/30 02:20:00;;;;;;;14.07;4.90;;;4.40;99.90;;;;;;5088835;28;20466;-86
2021/11/30 02:22:27;;;;;;;11.80;5.23;;;4.40;99.90;;;;;;5077778;28;21009;-84
2021/11/30 02:24:55;;;;;;;10.50;6.10;;;4.30;99.90;;;;;;5071638;28;20475;-85
2021/11/30 02:27:23;;;;;;;13.50;4.80;;;4.20;99.90;;;;;;5079375;28;20451;-86
2021/11/30 02:29:50;;;;;;;8.37;4.20;;;4.20;99.90;;;;;;5088636;28;20489;-85
2021/11/30 02:32:19;;;;;;;11.73;3.60;;;4.10;99.90;;;;;;5070477;28;20456;-85
2021/11/30 02:34:45;;;;;;;8.80;3.53;;;4.10;99.90;;;;;;5070457;28;20483;-86
2021/11/30 02:37:14;;;;;;;6.50;2.70;;;3.90;99.90;;;;;;5086473;28;20458;-86
2021/11/30 02:39:43;;;;;;;11.17;4.23;;;3.90;99.90;;;;;;5069198;28;20464;-87
2021/11/30 02:42:11;;;;;;;7.00;3.90;;;3.80;99.90;;;;;;5062866;28;20459;-86
2021/11/30 02:44:39;;;;;;;11.43;4.17;;;3.80;99.90;;;;;;5061806;28;20448;-86
2021/11/30 02:47:09;;;;;;;10.30;5.10;;;3.70;99.90;;;;;;5071559;28;20457;-85
2021/11/30 02:49:38;;;;;;;8.80;3.90;;;3.60;99.90;;;;;;5069566;28;20818;-85
2021/11/30 02:52:10;;;;;;;10.80;4.80;;;3.50;99.90;;;;;;5059042;28;20860;-84
2021/11/30 02:54:42;;;;;;;11.40;4.07;;;3.40;99.90;;;;;;5076439;28;20887;-83
2021/11/30 02:57:11;;;;;;;9.20;4.37;;;3.40;99.90;;;;;;5072467;28;20888;-84
2021/11/30 02:59:40;;;;;;;6.53;3.30;;;3.30;99.90;;;;;;5079236;28;20471;-84
2021/11/30 03:02:12;;;;;;;10.60;4.13;;;3.40;99.90;;;;;;5077491;28;20833;-83
2021/11/30 03:04:40;;;;;;;14.23;5.13;;;3.30;99.90;;;;;;5076865;28;20515;-82
2021/11/30 03:07:11;;;;;;;8.53;3.87;;;3.30;99.90;;;;;;5070907;28;20451;-83
2021/11/30 03:09:41;;;;;;;16.00;4.90;;;3.30;99.90;;;;;;5068051;28;20486;-82
2021/11/30 03:12:09;;;;;;;11.50;4.93;;;3.30;99.90;;;;;;5075207;28;20453;-83
2021/11/30 03:14:36;;;;;;;10.07;4.80;;;3.30;99.90;;;;;;5062751;28;20455;-83
2021/11/30 03:17:04;;;;;;;12.27;5.03;;;3.20;99.90;;;;;;5060635;28;20455;-83
2021/11/30 03:19:32;;;;;;;11.67;4.60;;;3.20;99.90;;;;;;5066168;28;20554;-84
2021/11/30 03:22:02;;;;;;;9.23;3.93;;;3.10;99.90;;;;;;5078901;28;20455;-84
2021/11/30 03:24:29;;;;;;;7.80;3.63;;;3.10;99.90;;;;;;5084159;28;20443;-84
2021/11/30 03:26:57;;;;;;;10.13;3.83;;;3.00;99.90;;;;;;5084019;28;20520;-83
2021/11/30 03:29:24;;;;;;;8.70;4.57;;;3.00;99.90;;;;;;5069380;28;21143;-86
2021/11/30 03:31:59;;;;;;;1060.20;525.70;;;3.00;99.90;;;;;;5075368;28;20511;-87
2021/11/30 03:34:25;;;;;;;15.03;6.73;;;2.90;99.90;;;;;;5071414;28;20212;-84
2021/11/30 03:36:54;;;;;;;12.93;6.60;;;2.80;99.90;;;;;;5074598;28;20446;-85
2021/11/30 03:39:23;;;;;;;16.70;8.00;;;2.80;99.90;;;;;;5079699;28;20463;-84
2021/11/30 03:41:53;;;;;;;9.10;5.97;;;2.80;99.90;;;;;;5083566;28;20454;-86
2021/11/30 03:44:22;;;;;;;10.10;6.50;;;2.70;99.90;;;;;;5068245;28;20452;-83
2021/11/30 03:46:49;;;;;;;11.40;6.50;;;2.80;99.90;;;;;;5082797;28;20451;-84
2021/11/30 03:49:17;;;;;;;8.35;5.63;;;2.80;99.90;;;;;;5085588;28;20570;-84
2021/11/30 03:51:46;;;;;;;10.27;5.93;;;2.80;99.90;;;;;;5083737;28;20197;-84
2021/11/30 03:54:13;;;;;;;8.37;5.33;;;2.80;99.90;;;;;;5083652;28;20215;-84
2021/11/30 03:56:40;;;;;;;16.17;6.63;;;2.90;99.90;;;;;;5078251;28;20451;-85
2021/11/30 03:59:07;;;;;;;8.47;5.03;;;2.80;99.90;;;;;;5075392;28;20231;-82
2021/11/30 04:01:35;;;;;;;8.40;5.97;;;2.80;99.90;;;;;;5076832;28;20491;-84
2021/11/30 04:04:08;;;;;;;12.90;6.57;;;2.70;99.90;;;;;;5074641;28;20452;-83
2021/11/30 04:06:35;;;;;;;10.00;6.33;;;2.80;99.90;;;;;;5067311;28;20573;-83
2021/11/30 04:09:02;;;;;;;10.00;6.00;;;2.80;99.90;;;;;;5058511;28;20478;-84
2021/11/30 04:11:28;;;;;;;9.70;5.97;;;2.80;99.90;;;;;;5067757;28;20451;-83
2021/11/30 04:13:55;;;;;;;8.73;5.70;;;2.70;99.90;;;;;;5074976;28;20677;-82
2021/11/30 04:16:22;;;;;;;10.47;5.77;;;2.70;99.90;;;;;;5064736;28;20203;-83
2021/11/30 04:18:50;;;;;;;6.93;5.53;;;2.80;99.90;;;;;;5075564;28;20474;-84
2021/11/30 04:21:17;;;;;;;9.40;4.33;;;2.90;99.90;;;;;;5062739;28;20454;-82
2021/11/30 04:23:44;;;;;;;7.47;4.87;;;2.90;99.90;;;;;;5074295;28;20449;-83
2021/11/30 04:26:10;;;;;;;7.30;4.77;;;2.90;99.90;;;;;;5070737;28;20465;-83
2021/11/30 04:28:39;;;;;;;7.60;5.60;;;2.90;99.90;;;;;;5069409;28;20460;-83
2021/11/30 04:31:06;;;;;;;6.25;4.43;;;2.90;99.90;;;;;;5062089;28;20259;-84
2021/11/30 04:33:33;;;;;;;7.07;5.33;;;3.00;99.90;;;;;;5077037;28;20213;-85
2021/11/30 04:36:01;;;;;;;10.35;5.68;;;3.00;99.90;;;;;;5058031;28;20813;-84
2021/11/30 04:38:28;;;;;;;6.70;4.10;;;3.10;99.90;;;;;;5061918;28;20288;-82
2021/11/30 04:40:54;;;;;;;6.73;4.60;;;3.20;99.90;;;;;;5072356;28;20449;-82
2021/11/30 04:43:21;;;;;;;8.67;5.47;;;3.20;99.90;;;;;;5061783;28;20454;-83
2021/11/30 04:45:55;;;;;;;6.17;3.80;;;3.30;99.90;;;;;;5059693;28;20483;-84
2021/11/30 04:48:24;;;;;;;7.20;4.23;;;3.40;99.90;;;;;;5056374;28;20851;-83
2021/11/30 04:50:52;;;;;;;5.77;4.13;;;3.50;99.90;;;;;;5056493;28;20495;-83
2021/11/30 04:53:23;;;;;;;7.73;4.90;;;3.50;99.90;;;;;;5056264;28;20483;-82
2021/11/30 04:55:51;;;;;;;7.40;5.50;;;3.60;99.90;;;;;;5065555;28;20452;-84
2021/11/30 04:58:19;;;;;;;8.07;5.23;;;3.70;99.90;;;;;;5073575;28;20876;-84
2021/11/30 05:00:47;;;;;;;9.33;6.20;;;3.70;99.90;;;;;;5077908;28;20469;-83
2021/11/30 05:03:14;;;;;;;13.80;8.00;;;3.80;99.90;;;;;;5073228;28;20456;-82
2021/11/30 05:05:41;;;;;;;9.70;6.50;;;3.90;99.90;;;;;;5080305;28;20454;-83
2021/11/30 05:08:09;;;;;;;8.17;7.03;;;4.00;99.90;;;;;;5087825;28;20467;-84
2021/11/30 05:10:37;;;;;;;12.97;8.63;;;4.00;99.90;;;;;;5075250;28;20504;-84
2021/11/30 05:13:04;;;;;;;12.07;9.70;;;4.10;99.90;;;;;;5084694;28;20443;-83
2021/11/30 05:15:31;;;;;;;15.70;9.70;;;4.10;99.90;;;;;;5072975;28;20448;-83
2021/11/30 05:17:58;;;;;;;16.63;10.23;;;4.20;99.90;;;;;;5065100;28;20447;-83
2021/11/30 05:20:25;;;;;;;12.60;9.07;;;4.20;99.90;;;;;;5075971;28;20463;-83
2021/11/30 05:22:53;;;;;;;12.50;8.63;;;4.30;99.90;;;;;;5075618;28;20955;-82
2021/11/30 05:25:21;;;;;;;14.50;9.90;;;4.30;99.90;;;;;;5066098;28;20454;-82
2021/11/30 05:27:50;;;;;;;12.43;9.83;;;4.30;99.90;;;;;;5068899;28;20459;-81
2021/11/30 05:30:19;;;;;;;11.53;9.10;;;4.40;99.90;;;;;;5068632;28;20482;-83
2021/11/30 05:32:47;;;;;;;12.33;9.90;;;4.40;99.90;;;;;;5075229;28;20455;-81
2021/11/30 05:35:14;;;;;;;14.60;9.20;;;4.40;99.90;;;;;;5077894;28;20461;-84
2021/11/30 05:37:41;;;;;;;13.33;9.43;;;4.50;99.90;;;;;;5076933;28;20450;-84
2021/11/30 05:40:09;;;;;;;12.20;10.03;;;4.50;99.90;;;;;;5081006;28;21016;-85
2021/11/30 05:42:36;;;;;;;10.87;9.70;;;4.60;99.90;;;;;;5082837;28;20836;-85
2021/11/30 05:45:05;;;;;;;15.03;11.97;;;4.60;99.90;;;;;;5076423;28;20845;-84
2021/11/30 05:47:32;;;;;;;14.10;11.90;;;4.60;99.90;;;;;;5080095;28;20454;-84
2021/11/30 05:49:59;;;;;;;13.87;10.50;;;4.70;99.90;;;;;;5076023;28;20483;-86
2021/11/30 05:52:26;;;;;;;12.33;8.60;;;4.70;99.90;;;;;;5066259;28;20447;-84
2021/11/30 05:54:53;;;;;;;12.50;9.90;;;4.70;99.90;;;;;;5062244;28;20463;-84
2021/11/30 05:57:22;;;;;;;12.77;9.40;;;4.70;99.90;;;;;;5059331;28;20455;-85
2021/11/30 05:59:49;;;;;;;12.50;9.77;;;4.80;99.90;;;;;;5066795;28;20475;-85
2021/11/30 06:02:19;;;;;;;12.70;9.00;;;4.80;99.90;;;;;;5069371;28;21224;-85
2021/11/30 06:04:45;;;;;;;15.00;10.70;;;4.80;99.90;;;;;;5063233;28;20812;-84
2021/11/30 06:07:12;;;;;;;12.63;9.07;;;4.90;99.90;;;;;;5075745;28;20827;-80
2021/11/30 06:09:39;;;;;;;10.73;7.90;;;5.50;99.90;;;;;;5070033;28;20443;-80
2021/11/30 06:12:06;;;;;;;9.90;7.40;;;5.60;99.90;;;;;;5073424;28;20575;-79
2021/11/30 06:14:33;;;;;;;9.60;6.73;;;5.60;99.90;;;;;;5054810;28;20468;-79
2021/11/30 06:17:00;;;;;;;7.80;5.57;;;5.80;99.90;;;;;;5055332;28;20448;-76
2021/11/30 06:19:28;;;;;;;7.57;6.30;;;6.20;99.90;;;;;;5069273;28;20914;-82
2021/11/30 06:21:55;;;;;;;8.33;6.40;;;6.10;99.90;;;;;;5069171;28;20464;-79
2021/11/30 06:24:22;;;;;;;10.40;6.70;;;5.80;99.90;;;;;;5028506;28;20460;-80
2021/11/30 06:26:49;;;;;;;8.50;6.57;;;5.60;99.90;;;;;;5063305;28;20457;-78
2021/11/30 06:29:16;;;;;;;12.80;7.87;;;5.50;99.90;;;;;;5059008;28;20472;-80
2021/11/30 06:31:43;;;;;;;11.30;7.90;;;5.40;99.90;;;;;;5061845;28;20512;-79
2021/11/30 06:34:10;;;;;;;11.30;7.93;;;5.40;99.90;;;;;;5068760;28;20458;-81
2021/11/30 06:36:38;;;;;;;11.10;8.17;;;5.40;99.90;;;;;;5051471;28;20457;-79
2021/11/30 06:39:05;;;;;;;11.03;8.00;;;5.40;99.90;;;;;;5058811;28;20556;-82
2021/11/30 06:41:32;;;;;;;11.37;9.50;;;5.40;99.90;;;;;;5056953;28;20472;-82
2021/11/30 06:43:59;;;;;;;12.13;8.30;;;5.40;99.90;;;;;;5054002;28;20466;-80
2021/11/30 06:46:26;;;;;;;11.97;9.60;;;5.40;99.90;;;;;;5061791;28;20457;-81
2021/11/30 06:48:53;;;;;;;9.83;7.73;;;5.40;99.90;;;;;;5053998;28;20483;-81
2021/11/30 06:51:20;;;;;;;11.93;9.73;;;5.50;99.90;;;;;;5065881;28;20486;-82
2021/11/30 06:53:49;;;;;;;13.27;10.07;;;5.50;99.90;;;;;;5055502;28;20458;-82
2021/11/30 06:56:15;;;;;;;15.20;10.60;;;5.50;99.90;;;;;;5053622;28;20558;-79
2021/11/30 06:58:42;;;;;;;12.20;10.13;;;5.50;99.90;;;;;;5062167;28;20451;-81
2021/11/30 07:01:11;;;;;;;14.60;10.77;;;5.60;99.90;;;;;;5070963;28;20459;-82
2021/11/30 07:03:38;;;;;;;14.47;10.30;;;5.50;99.90;;;;;;5063320;28;20460;-81
2021/11/30 07:06:11;;;;;;;14.03;11.33;;;5.60;99.90;;;;;;5066387;28;20492;-81
2021/11/30 07:08:51;;;;;;;15.40;10.73;;;5.70;99.90;;;;;;5060272;28;20975;-79
2021/11/30 07:11:36;;;;;;;17.40;11.50;;;5.60;99.90;;;;;;5059393;28;21017;-80
2021/11/30 07:14:03;;;;;;;15.97;10.63;;;5.70;99.90;;;;;;5061114;28;21047;-81
2021/11/30 07:16:30;;;;;;;17.90;10.90;;;5.70;99.90;;;;;;5061662;28;20547;-79
2021/11/30 07:18:57;;;;;;;15.83;10.30;;;5.80;99.90;;;;;;5059348;28;20471;-79
2021/11/30 07:21:26;;;;;;;13.60;10.50;;;5.80;99.90;;;;;;5060865;28;20453;-81
2021/11/30 07:23:53;;;;;;;13.67;10.67;;;5.80;99.90;;;;;;5064000;28;20464;-80
2021/11/30 07:26:20;;;;;;;18.87;13.00;;;5.90;99.90;;;;;;5062908;28;20444;-84
2021/11/30 07:28:50;;;;;;;15.97;10.97;;;5.90;99.90;;;;;;5058358;28;20464;-80
2021/11/30 07:31:17;;;;;;;13.97;10.87;;;5.90;99.90;;;;;;5061297;28;20488;-79
2021/11/30 07:33:49;;;;;;;14.60;12.23;;;6.00;99.90;;;;;;5060866;28;20856;-84
2021/11/30 07:36:17;;;;;;;14.50;11.13;;;6.10;99.90;;;;;;5060453;28;20457;-81
2021/11/30 07:38:47;;;;;;;17.00;13.47;;;6.10;99.90;;;;;;5063174;28;20462;-84
2021/11/30 07:41:16;;;;;;;15.80;12.20;;;6.20;99.90;;;;;;5063648;28;20455;-80
2021/11/30 07:43:42;;;;;;;17.17;13.60;;;6.20;99.90;;;;;;5061560;28;20897;-81
2021/11/30 07:46:11;;;;;;;16.03;13.17;;;6.20;99.90;;;;;;5065277;28;20439;-81
2021/11/30 07:48:38;;;;;;;17.87;13.73;;;6.30;99.90;;;;;;5062238;28;21061;-81
2021/11/30 07:51:09;;;;;;;15.47;10.87;;;6.40;99.90;;;;;;5060617;28;20485;-82
2021/11/30 07:53:42;;;;;;;16.47;12.57;;;6.40;99.90;;;;;;5059071;28;20824;-82
2021/11/30 07:56:09;;;;;;;17.13;12.60;;;6.50;99.90;;;;;;5061081;28;20453;-80
2021/11/30 07:58:36;;;;;;;17.87;14.63;;;6.50;99.90;;;;;;5057252;28;20459;-81
2021/11/30 08:01:03;;;;;;;14.27;10.50;;;6.60;99.90;;;;;;5051815;28;20450;-80
2021/11/30 08:03:31;;;;;;;12.83;10.33;;;6.70;99.90;;;;;;5061423;28;20463;-82
2021/11/30 08:05:58;;;;;;;14.97;12.47;;;6.70;99.90;;;;;;5070583;28;20458;-82
2021/11/30 08:08:25;;;;;;;12.43;10.43;;;6.70;99.90;;;;;;5057574;28;20450;-81
2021/11/30 08:10:52;;;;;;;13.00;10.77;;;6.80;99.90;;;;;;5064531;28;20496;-81
2021/11/30 08:13:18;;;;;;;11.07;9.97;;;6.80;99.90;;;;;;5062415;28;20461;-82
2021/11/30 08:15:45;;;;;;;12.40;10.03;;;6.80;99.90;;;;;;5065136;28;20465;-81
2021/11/30 08:18:12;;;;;;;14.20;10.03;;;6.90;99.90;;;;;;5066114;28;21214;-82
2021/11/30 08:20:40;;;;;;;13.37;10.43;;;6.90;99.90;;;;;;5063587;28;20842;-81
2021/11/30 08:23:07;;;;;;;13.23;11.37;;;6.90;99.90;;;;;;5060328;28;20463;-79
2021/11/30 08:25:34;;;;;;;11.03;9.40;;;7.00;99.90;;;;;;5055792;28;20459;-82
2021/11/30 08:28:01;;;;;;;11.30;9.90;;;7.00;99.90;;;;;;5058930;28;20553;-81
2021/11/30 08:30:28;;;;;;;10.80;9.07;;;7.10;99.90;;;;;;5060184;28;20481;-82
2021/11/30 08:32:57;;;;;;;11.90;9.43;;;7.00;99.90;;;;;;5058866;28;20463;-81
2021/11/30 08:35:24;;;;;;;10.90;8.90;;;7.10;99.90;;;;;;5062455;28;20461;-81
2021/11/30 08:37:53;;;;;;;8.97;7.77;;;7.10;99.90;;;;;;5062092;28;20473;-79
2021/11/30 08:40:20;;;;;;;8.00;6.63;;;7.10;99.90;;;;;;5064708;28;21065;-79
2021/11/30 08:42:46;;;;;;;8.73;7.47;;;7.10;99.90;;;;;;5068967;28;20523;-79
2021/11/30 08:45:14;;;;;;;8.50;7.10;;;7.10;99.90;;;;;;5071310;28;20451;-80
2021/11/30 08:47:41;;;;;;;10.33;8.30;;;7.10;99.90;;;;;;5066664;28;20462;-79
2021/11/30 08:50:12;;;;;;;11.50;7.37;;;7.20;99.90;;;;;;5054247;28;20478;-80
2021/11/30 08:52:40;;;;;;;8.30;7.20;;;7.20;99.90;;;;;;5060692;28;21168;-81
2021/11/30 08:55:10;;;;;;;8.60;7.50;;;7.20;99.90;;;;;;5058767;28;20465;-79
2021/11/30 08:57:37;;;;;;;8.33;6.80;;;7.30;99.90;;;;;;5059404;28;20467;-79
2021/11/30 09:00:07;;;;;;;7.20;6.37;;;7.30;99.90;;;;;;5058537;28;20849;-80
2021/11/30 09:02:35;;;;;;;6.00;4.83;;;7.30;99.90;;;;;;5059204;28;20461;-79
2021/11/30 09:05:02;;;;;;;7.90;5.50;;;7.30;99.90;;;;;;5065154;28;21950;-81
2021/11/30 09:07:29;;;;;;;7.03;5.73;;;7.40;99.90;;;;;;5060152;28;20453;-79
2021/11/30 09:09:55;;;;;;;5.17;4.50;;;7.40;99.90;;;;;;5067204;28;20474;-79
2021/11/30 09:12:24;;;;;;;5.27;4.43;;;7.50;99.90;;;;;;5060830;28;20547;-80
2021/11/30 09:14:51;;;;;;;4.93;4.40;;;7.50;99.90;;;;;;5058212;28;20460;-79
2021/11/30 09:17:20;;;;;;;5.70;5.10;;;7.50;99.90;;;;;;5063927;28;20550;-80
2021/11/30 09:19:47;;;;;;;7.60;5.60;;;7.50;99.90;;;;;;5058919;28;20940;-81
2021/11/30 09:22:14;;;;;;;8.80;6.70;;;7.50;99.90;;;;;;5060403;28;20644;-81
2021/11/30 09:24:41;;;;;;;5.80;5.07;;;7.50;99.90;;;;;;5062750;28;20454;-80
2021/11/30 09:27:09;;;;;;;6.40;5.10;;;7.50;99.90;;;;;;5069533;28;20959;-80
2021/11/30 09:29:37;;;;;;;5.40;4.70;;;7.50;99.90;;;;;;5060370;28;20826;-81
2021/11/30 09:32:05;;;;;;;4.50;4.00;;;7.50;99.90;;;;;;5062653;28;20490;-79
2021/11/30 09:34:31;;;;;;;6.10;4.83;;;7.50;99.90;;;;;;5064895;28;20450;-80
2021/11/30 09:36:58;;;;;;;4.77;4.27;;;7.60;99.90;;;;;;5071065;28;20446;-80
2021/11/30 09:39:25;;;;;;;7.90;4.87;;;7.60;99.90;;;;;;5061037;28;20925;-82
2021/11/30 09:41:52;;;;;;;7.73;4.10;;;7.60;99.90;;;;;;5061636;28;20459;-79
2021/11/30 09:44:22;;;;;;;5.50;5.00;;;7.60;99.90;;;;;;5057349;28;20465;-79
2021/11/30 09:46:51;;;;;;;5.93;4.83;;;7.70;99.90;;;;;;5064626;28;20470;-80
2021/11/30 09:49:19;;;;;;;7.70;4.83;;;7.70;99.90;;;;;;5061485;28;20847;-80
2021/11/30 09:51:46;;;;;;;5.53;4.93;;;7.70;99.90;;;;;;5069313;28;20494;-79
2021/11/30 09:54:13;;;;;;;6.73;5.83;;;7.70;99.90;;;;;;5067652;28;21251;-80
2021/11/30 09:56:40;;;;;;;6.47;5.50;;;7.80;99.90;;;;;;5059789;28;20987;-80
2021/11/30 09:59:07;;;;;;;7.10;5.57;;;7.90;99.90;;;;;;5069617;28;20467;-81
2021/11/30 10:01:34;;;;;;;6.63;5.57;;;7.90;99.90;;;;;;5062980;28;20453;-80
2021/11/30 10:04:03;;;;;;;9.30;7.10;;;7.90;99.90;;;;;;5067286;28;20453;-79
2021/11/30 10:06:31;;;;;;;9.00;7.00;;;7.90;99.90;;;;;;5069675;28;20492;-80
2021/11/30 10:08:59;;;;;;;9.47;6.50;;;7.90;99.90;;;;;;5066094;28;20539;-79
2021/11/30 10:11:29;;;;;;;5.60;5.00;;;7.90;99.90;;;;;;5054978;28;20486;-78
2021/11/30 10:14:12;;;;;;;5.73;4.67;;;7.90;99.90;;;;;;5062870;28;20464;-80
2021/11/30 10:16:39;;;;;;;7.60;5.93;;;8.00;99.90;;;;;;5066393;28;20446;-80
2021/11/30 10:19:07;;;;;;;6.20;5.33;;;8.00;99.90;;;;;;5064301;28;20467;-78
2021/11/30 10:21:35;;;;;;;4.90;3.90;;;8.00;99.90;;;;;;5071580;28;20465;-78
2021/11/30 10:24:04;;;;;;;5.83;5.23;;;8.00;99.90;;;;;;5062251;28;20443;-79
2021/11/30 10:26:33;;;;;;;5.67;4.97;;;8.00;99.90;;;;;;5062582;28;20455;-79
2021/11/30 10:29:04;;;;;;;5.53;4.73;;;8.00;99.90;;;;;;5071451;28;20494;-78
2021/11/30 10:31:33;;;;;;;6.20;3.67;;;8.10;99.90;;;;;;5060507;28;20756;-78
2021/11/30 10:34:11;;;;;;;5.37;4.30;;;8.10;99.90;;;;;;5047597;28;20457;-79
2021/11/30 10:36:45;;;;;;;5.37;4.60;;;8.10;99.90;;;;;;5069326;28;20508;-80
2021/11/30 10:39:20;;;;;;;6.83;5.30;;;8.10;99.90;;;;;;5070741;28;20470;-79
2021/11/30 10:41:48;;;;;;;6.90;5.20;;;8.10;99.90;;;;;;5068607;28;20992;-79
2021/11/30 10:44:15;;;;;;;5.07;4.50;;;8.20;99.90;;;;;;5066970;28;20450;-79
2021/11/30 10:46:42;;;;;;;6.83;4.30;;;8.20;99.90;;;;;;5073732;28;20529;-79
2021/11/30 10:49:11;;;;;;;5.50;4.67;;;8.20;99.90;;;;;;5072055;28;20466;-79
2021/11/30 10:51:44;;;;;;;5.30;4.50;;;8.20;99.90;;;;;;5070149;28;21105;-78
2021/11/30 10:54:11;;;;;;;8.23;7.10;;;8.30;99.90;;;;;;5066749;28;20478;-80
2021/11/30 10:56:38;;;;;;;7.73;6.10;;;8.30;99.90;;;;;;5066760;28;20469;-79
2021/11/30 10:59:05;;;;;;;9.20;6.90;;;8.40;99.90;;;;;;5068416;28;20471;-79
2021/11/30 11:01:32;;;;;;;8.27;7.07;;;8.30;99.90;;;;;;5065255;28;20468;-79
2021/11/30 11:04:07;;;;;;;7.83;5.43;;;8.40;99.90;;;;;;5066174;28;20524;-79
2021/11/30 11:06:37;;;;;;;6.53;5.37;;;8.40;99.90;;;;;;5069212;28;20446;-79
2021/11/30 11:09:06;;;;;;;6.93;5.00;;;8.40;99.90;;;;;;5073259;28;21040;-79
2021/11/30 11:11:35;;;;;;;6.07;5.10;;;8.50;99.90;;;;;;5071679;28;20493;-80
2021/11/30 11:14:02;;;;;;;6.83;4.93;;;8.50;99.90;;;;;;5073332;28;20488;-80
2021/11/30 11:16:31;;;;;;;5.90;5.10;;;8.50;99.90;;;;;;5068961;28;20882;-80
2021/11/30 11:18:59;;;;;;;9.33;6.13;;;8.50;99.90;;;;;;5065011;28;20478;-80
2021/11/30 11:21:29;;;;;;;9.33;5.60;;;8.10;99.90;;;;;;5063397;28;20818;-82
2021/11/30 11:24:05;;;;;;;7.80;6.20;;;8.60;99.90;;;;;;5070040;28;20664;-81
2021/11/30 11:26:34;;;;;;;7.73;6.37;;;8.60;99.90;;;;;;5074274;28;20836;-80
2021/11/30 11:29:04;;;;;;;8.70;6.10;;;8.60;99.90;;;;;;5066999;28;20471;-81
2021/11/30 11:31:31;;;;;;;7.87;5.43;;;8.60;99.90;;;;;;5060749;28;20459;-80
2021/11/30 11:34:02;;;;;;;9.20;4.90;;;8.60;99.90;;;;;;5070761;28;20460;-81
2021/11/30 11:36:30;;;;;;;7.37;5.87;;;8.70;99.90;;;;;;5075297;28;20472;-81
2021/11/30 11:38:57;;;;;;;9.10;5.93;;;8.70;99.90;;;;;;5070778;28;20952;-80
2021/11/30 11:41:25;;;;;;;7.83;5.83;;;8.70;99.90;;;;;;5072092;28;20450;-81
2021/11/30 11:43:53;;;;;;;10.53;6.33;;;8.70;99.90;;;;;;5065331;28;20470;-80
2021/11/30 11:46:21;;;;;;;8.90;5.07;;;8.80;99.90;;;;;;5069088;28;21059;-82
2021/11/30 11:48:56;;;;;;;7.53;5.63;;;8.90;99.90;;;;;;5067662;28;20834;-81
2021/11/30 11:51:23;;;;;;;8.23;6.90;;;8.90;99.90;;;;;;5056400;28;20451;-81
2021/11/30 11:53:53;;;;;;;7.27;5.43;;;8.90;99.90;;;;;;5070242;28;20835;-80
2021/11/30 11:56:23;;;;;;;7.27;4.80;;;9.00;99.90;;;;;;5072133;28;20899;-80
2021/11/30 11:59:09;;;;;;;4.03;2.70;;;9.00;99.90;;;;;;5072320;28;20451;-81
2021/11/30 12:01:37;;;;;;;3.33;1.67;;;8.90;99.90;;;;;;5063236;28;20542;-81
2021/11/30 12:04:05;;;;;;;2.40;0.80;;;9.60;99.90;;;;;;5059639;28;20454;-77
2021/11/30 12:06:34;;;;;;;2.50;0.93;;;10.60;99.90;;;;;;5071032;28;20455;-77
2021/11/30 12:09:20;;;;;;;2.20;0.90;;;11.60;99.90;;;;;;5071448;28;20473;-77
2021/11/30 12:11:50;;;;;;;2.53;0.97;;;11.80;99.90;;;;;;5068724;28;20461;-79
2021/11/30 12:14:23;;;;;;;4.53;1.40;;;11.60;99.90;;;;;;5066374;28;20475;-76
2021/11/30 12:17:15;;;;;;;1.87;0.80;;;11.60;99.90;;;;;;5071169;28;20466;-78
2021/11/30 12:19:46;;;;;;;2.13;0.90;;;11.90;99.90;;;;;;5065760;28;20535;-79
2021/11/30 12:22:14;;;;;;;2.23;0.80;;;12.20;99.90;;;;;;5063033;28;20450;-79
2021/11/30 12:24:44;;;;;;;5.53;1.40;;;11.90;99.90;;;;;;5070648;28;20474;-80
2021/11/30 12:27:41;;;;;;;3.30;1.00;;;11.10;99.90;;;;;;5071640;28;20238;-80
2021/11/30 12:30:28;;;;;;;2.50;1.17;;;10.60;99.90;;;;;;5057563;28;21019;-80
2021/11/30 12:32:55;;;;;;;2.00;0.80;;;10.20;99.90;;;;;;5068614;28;20492;-80
2021/11/30 12:35:22;;;;;;;2.57;1.20;;;9.90;99.90;;;;;;5065660;28;20894;-82
2021/11/30 12:38:09;;;;;;;3.17;1.30;;;9.50;99.90;;;;;;5067475;28;20485;-81
2021/11/30 12:40:36;;;;;;;4.83;1.40;;;9.40;99.90;;;;;;5060460;28;20469;-81
2021/11/30 12:43:14;;;;;;;4.53;1.20;;;9.30;99.90;;;;;;5070929;28;20435;-80
2021/11/30 12:45:48;;;;;;;4.80;1.27;;;9.20;99.90;;;;;;5070856;28;20450;-80
2021/11/30 12:48:17;;;;;;;2.67;1.03;;;9.10;99.90;;;;;;5067630;28;20453;-80
2021/11/30 12:50:44;;;;;;;4.87;1.40;;;9.00;99.90;;;;;;5065092;28;20471;-80
2021/11/30 12:53:12;;;;;;;2.47;1.20;;;9.00;99.90;;;;;;5072906;28;20486;-81
2021/11/30 12:55:44;;;;;;;3.70;1.30;;;9.00;99.90;;;;;;5065329;28;20463;-80
2021/11/30 12:58:39;;;;;;;3.70;2.10;;;9.00;99.90;;;;;;5068672;28;20538;-83